Time;durP1;ratioP1;P1;durP2;ratioP2;P2;SDS_P1;SDS_P2;PMS_P1;PMS_P2;Temp;Humidity;BMP_temperature;BMP_pressure;BME280_temperature;BME280_humidity;BME280_pressure;Samples;Min_cycle;Max_cycle;Signal;HPM_P1;HPM_P2
2023/11/06 08:51:36;;;;;;;1.40;1.20;;;;;;;12.81;84.51;97867.28;5170934;27;20940;-88
2023/11/06 08:54:05;;;;;;;3.07;1.07;;;;;;;13.56;81.26;97869.47;5151805;27;38839;-88
2023/11/06 08:56:32;;;;;;;3.67;1.30;;;;;;;14.23;76.60;97888.06;5135352;27;40853;-89
2023/11/06 08:59:00;;;;;;;1.70;1.00;;;;;;;14.52;74.74;97890.72;5133709;27;42583;-90
2023/11/06 09:01:27;;;;;;;2.97;1.10;;;;;;;14.64;71.81;97910.03;5135012;27;41410;-87
2023/11/06 09:03:55;;;;;;;2.40;1.00;;;;;;;14.58;70.58;97884.81;5133397;27;39132;-88
2023/11/06 09:06:23;;;;;;;2.87;0.87;;;;;;;14.71;68.82;97900.50;5134780;27;41724;-88
2023/11/06 09:08:52;;;;;;;2.93;0.83;;;;;;;15.10;68.05;97912.66;5133239;27;42200;-88
2023/11/06 09:11:21;;;;;;;3.03;1.90;;;;;;;15.02;64.79;97920.56;5134757;27;41152;-90
2023/11/06 09:13:49;;;;;;;2.17;1.13;;;;;;;15.04;64.57;97921.28;5135242;27;39973;-89
2023/11/06 09:16:17;;;;;;;1.90;1.10;;;;;;;15.27;65.20;97932.38;5135943;27;41374;-88
2023/11/06 09:18:44;;;;;;;3.47;1.37;;;;;;;15.36;62.97;97923.50;5152203;27;43043;-88
2023/11/06 09:21:13;;;;;;;3.13;1.73;;;;;;;15.50;63.29;97934.66;5135585;27;41187;-86
2023/11/06 09:23:42;;;;;;;4.37;1.97;;;;;;;15.53;62.50;97959.22;5135194;27;38902;-87
2023/11/06 09:26:11;;;;;;;3.90;1.17;;;;;;;15.63;62.63;97953.84;5135447;27;40513;-90
2023/11/06 09:28:39;;;;;;;4.27;1.77;;;;;;;15.38;62.05;97916.19;5134770;27;41842;-88
2023/11/06 09:31:06;;;;;;;3.53;1.50;;;;;;;15.71;61.34;97967.28;5135387;27;41228;-88
2023/11/06 09:33:34;;;;;;;1.93;1.23;;;;;;;15.80;59.94;97961.06;5135099;27;39241;-88
2023/11/06 09:36:02;;;;;;;3.90;1.20;;;;;;;16.01;60.05;97972.31;5135501;27;41666;-88
2023/11/06 09:38:30;;;;;;;4.60;1.10;;;;;;;16.31;57.97;97986.28;5152042;27;41463;-88
2023/11/06 09:40:57;;;;;;;4.57;1.20;;;;;;;16.38;56.66;97982.00;5150822;27;42445;-88
2023/11/06 09:43:27;;;;;;;3.10;1.50;;;;;;;16.55;56.94;97999.88;5153476;27;39719;-89
2023/11/06 09:45:54;;;;;;;3.73;1.20;;;;;;;16.53;56.28;97985.81;5146995;27;40460;-86
2023/11/06 09:48:30;;;;;;;1.77;0.70;;;;;;;16.54;55.70;97995.50;5155511;27;41231;-88
2023/11/06 09:50:57;;;;;;;2.63;1.23;;;;;;;16.40;55.08;97998.72;5150832;27;42092;-89
2023/11/06 09:53:28;;;;;;;2.87;1.30;;;;;;;16.24;55.81;98003.91;5151739;27;39926;-90
2023/11/06 09:55:58;;;;;;;4.00;0.90;;;;;;;16.00;54.84;98007.16;5134170;27;40794;-85
2023/11/06 09:58:27;;;;;;;2.50;0.87;;;;;;;16.13;54.98;98007.63;5133960;27;41757;-88
2023/11/06 10:00:54;;;;;;;3.70;1.10;;;;;;;16.40;53.72;98015.59;5130432;27;41454;-88
2023/11/06 10:03:22;;;;;;;4.07;1.20;;;;;;;16.94;53.01;98018.25;5119957;27;39018;-87
2023/11/06 10:05:49;;;;;;;2.80;1.10;;;;;;;18.06;51.13;98038.59;5119702;27;41037;-88
2023/11/06 10:08:28;;;;;;;5.03;1.10;;;;;;;19.67;47.85;98073.72;5138676;27;42836;-85
2023/11/06 10:10:59;;;;;;;5.40;1.20;;;;;;;21.24;43.97;98067.13;5147618;27;41161;-89
2023/11/06 10:13:29;;;;;;;3.87;0.90;;;;;;;23.52;40.05;98105.44;5121969;27;39000;-89
2023/11/06 10:15:58;;;;;;;3.63;1.00;;;;;;;23.89;39.04;98102.38;5120581;27;41294;-90
2023/11/06 10:18:27;;;;;;;2.73;0.97;;;;;;;22.84;38.73;98104.19;5102950;27;43067;-85
2023/11/06 10:20:55;;;;;;;4.57;1.00;;;;;;;21.86;38.88;98118.03;5120755;27;41238;-89
2023/11/06 10:23:25;;;;;;;2.57;0.97;;;;;;;20.99;39.98;98087.19;5121457;27;38626;-87
2023/11/06 10:25:53;;;;;;;3.33;1.03;;;;;;;20.53;41.46;98091.69;5120594;27;40483;-88
2023/11/06 10:28:22;;;;;;;5.23;1.20;;;;;;;20.07;42.32;98080.81;5120728;27;41916;-89
2023/11/06 10:30:52;;;;;;;5.47;1.70;;;;;;;19.62;43.07;98082.31;5120252;27;41059;-89
2023/11/06 10:33:21;;;;;;;3.83;1.10;;;;;;;19.17;44.28;98047.09;5120847;27;38922;-88
2023/11/06 10:35:49;;;;;;;6.00;1.33;;;;;;;19.16;44.49;98064.25;5120457;27;40794;-87
2023/11/06 10:38:30;;;;;;;3.27;1.33;;;;;;;19.53;44.53;98048.44;5120935;27;41460;-89
2023/11/06 10:40:58;;;;;;;4.17;1.40;;;;;;;20.12;42.76;98066.84;5119275;27;40973;-87
2023/11/06 10:43:26;;;;;;;4.13;1.20;;;;;;;19.94;44.45;98032.97;5119405;27;38948;-89
2023/11/06 10:45:56;;;;;;;4.47;1.20;;;;;;;19.84;44.50;98051.16;5154766;27;41797;-88
2023/11/06 10:48:33;;;;;;;2.63;1.13;;;;;;;19.64;44.03;98048.06;5119514;27;41751;-88
2023/11/06 10:51:02;;;;;;;2.60;1.20;;;;;;;19.05;44.94;98035.03;5154460;27;42303;-87
2023/11/06 10:53:33;;;;;;;2.53;0.90;;;;;;;18.66;45.36;98038.41;5136714;27;38568;-90
2023/11/06 10:56:03;;;;;;;3.30;1.30;;;;;;;18.39;45.56;98011.88;5118083;27;41668;-89
2023/11/06 10:58:31;;;;;;;2.60;1.10;;;;;;;18.42;46.29;98033.00;5119621;27;41778;-89
2023/11/06 11:01:01;;;;;;;4.60;1.00;;;;;;;18.60;45.57;98031.03;5118096;27;42243;-90
2023/11/06 11:03:31;;;;;;;1.83;0.70;;;;;;;19.27;45.98;98034.34;5119532;27;40115;-90
2023/11/06 11:05:59;;;;;;;3.47;0.90;;;;;;;19.84;44.60;98027.00;5135661;27;42054;-89
2023/11/06 11:08:27;;;;;;;3.83;1.10;;;;;;;22.17;42.81;98027.00;5118686;27;41519;-89
2023/11/06 11:10:57;;;;;;;3.50;0.90;;;;;;;23.12;41.09;98028.63;5117364;27;41212;-89
2023/11/06 11:13:24;;;;;;;0.87;0.80;;;;;;;24.71;38.94;98052.81;5118853;27;38814;-88
2023/11/06 11:15:52;;;;;;;2.97;1.50;;;;;;;24.19;37.23;98069.66;5119655;27;41934;-88
2023/11/06 11:18:29;;;;;;;3.57;1.40;;;;;;;23.76;38.40;98055.50;5119925;27;43366;-89
2023/11/06 11:20:58;;;;;;;2.90;1.20;;;;;;;25.05;37.83;98059.97;5120447;27;41258;-88
2023/11/06 11:23:37;;;;;;;1.37;0.90;;;;;;;23.97;36.50;98064.38;5119378;27;39029;-87
2023/11/06 11:26:09;;;;;;;2.03;0.80;;;;;;;24.24;37.39;98067.22;5112660;27;41552;-89
2023/11/06 11:28:53;;;;;;;2.27;0.83;;;;;;;27.41;33.65;98073.78;5119555;27;42729;-86
2023/11/06 11:31:39;;;;;;;1.93;1.03;;;;;;;26.74;34.84;98071.69;5118035;27;41447;-88
2023/11/06 11:34:26;;;;;;;3.23;0.90;;;;;;;27.12;33.15;98080.69;5117554;27;39023;-89
2023/11/06 11:36:56;;;;;;;1.83;0.83;;;;;;;27.14;32.89;98085.91;5118557;27;40710;-84
2023/11/06 11:39:23;;;;;;;2.57;0.83;;;;;;;25.77;32.95;98069.97;5117419;27;42985;-89
2023/11/06 11:42:22;;;;;;;2.63;0.70;;;;;;;25.24;32.76;98096.25;5118229;27;40988;-88
2023/11/06 11:44:52;;;;;;;1.47;0.60;;;;;;;28.78;30.33;98097.06;5098057;27;39063;-88
2023/11/06 11:47:19;;;;;;;2.10;0.80;;;;;;;31.34;27.44;98100.72;5113947;27;40782;-90
2023/11/06 11:49:49;;;;;;;3.88;0.80;;;;;;;32.50;25.72;98120.88;5134884;27;43792;-90
2023/11/06 11:52:44;;;;;;;2.45;0.90;;;;;;;32.26;25.95;98114.81;5117893;27;41224;-90
2023/11/06 11:55:34;;;;;;;1.90;0.80;;;;;;;31.17;27.57;98091.66;5152508;27;40011;-91
2023/11/06 11:58:05;;;;;;;2.00;0.70;;;;;;;33.67;25.71;98091.94;5117520;27;40832;-92
2023/11/06 12:00:33;;;;;;;1.70;0.70;;;;;;;35.77;23.79;98093.34;5118155;27;41317;-89
2023/11/06 12:03:08;;;;;;;1.98;0.68;;;;;;;37.64;22.57;98116.59;5117830;27;41092;-90
2023/11/06 12:05:38;;;;;;;0.90;0.80;;;;;;;38.88;20.69;98107.56;5117717;27;40026;-91
2023/11/06 12:08:17;;;;;;;1.67;0.70;;;;;;;38.35;20.45;98064.19;5117488;27;40900;-92
2023/11/06 12:10:46;;;;;;;1.08;0.68;;;;;;;35.97;20.61;98094.16;5117826;27;41956;-89
2023/11/06 12:13:14;;;;;;;5.18;3.60;;;;;;;32.90;22.57;98092.28;5118693;27;41163;-90
2023/11/06 12:15:42;;;;;;;1.63;1.10;;;;;;;30.49;24.44;98059.69;5119312;27;39506;-90
2023/11/06 12:18:11;;;;;;;0.77;0.63;;;;;;;28.84;26.87;98046.22;5118638;27;41221;-89
2023/11/06 12:20:40;;;;;;;1.10;0.70;;;;;;;28.01;27.27;98051.44;5118327;27;41691;-88
2023/11/06 12:23:07;;;;;;;1.90;0.90;;;;;;;28.77;27.12;98062.66;5118541;27;41989;-85
2023/11/06 12:25:37;;;;;;;2.00;0.87;;;;;;;28.21;27.11;98049.34;5134837;27;40481;-90
2023/11/06 12:28:05;;;;;;;1.10;0.70;;;;;;;26.82;29.05;98031.53;5118401;27;40984;-90
2023/11/06 12:30:34;;;;;;;1.60;0.70;;;;;;;25.81;31.05;98021.56;5136620;27;42450;-87
2023/11/06 12:33:13;;;;;;;1.67;0.87;;;;;;;24.85;32.23;98005.72;5120202;27;40816;-87
2023/11/06 12:35:43;;;;;;;1.50;0.80;;;;;;;23.89;32.95;98005.03;5137714;27;38844;-87
2023/11/06 12:38:11;;;;;;;0.40;0.40;;;;;;;23.08;34.22;98001.16;5141572;27;40879;-87
2023/11/06 12:40:43;;;;;;;0.93;0.60;;;;;;;22.50;35.08;97978.81;5117492;27;41644;-88
2023/11/06 12:43:13;;;;;;;0.87;0.60;;;;;;;22.04;36.06;97972.09;5117735;27;40987;-87
2023/11/06 12:45:43;;;;;;;2.23;0.70;;;;;;;21.63;37.10;97972.59;5134383;27;39800;-87
2023/11/06 12:48:23;;;;;;;2.13;0.83;;;;;;;21.46;37.77;97976.50;5115112;27;42654;-89
2023/11/06 12:51:06;;;;;;;2.90;1.03;;;;;;;21.53;38.37;97934.31;5116581;27;41732;-89
2023/11/06 12:53:35;;;;;;;2.17;1.07;;;;;;;22.00;37.94;97947.38;5117469;27;42318;-87
2023/11/06 12:56:04;;;;;;;2.37;1.20;;;;;;;22.24;37.26;97970.47;5115281;27;39475;-87
2023/11/06 12:58:31;;;;;;;2.70;1.10;;;;;;;21.98;37.70;97948.56;5117082;27;41890;-88
2023/11/06 13:01:01;;;;;;;2.63;1.17;;;;;;;21.81;38.61;97942.56;5116763;27;42863;-88
2023/11/06 13:03:30;;;;;;;2.30;0.97;;;;;;;21.54;38.48;97967.47;5116754;27;42321;-87
2023/11/06 13:05:59;;;;;;;2.67;0.80;;;;;;;21.14;39.20;97938.09;5116046;27;39121;-87
2023/11/06 13:08:32;;;;;;;0.50;0.50;;;;;;;21.35;39.52;97945.50;5116961;27;41870;-88
2023/11/06 13:11:00;;;;;;;0.87;0.70;;;;;;;21.26;39.17;97929.63;5115985;27;41619;-87
2023/11/06 13:13:28;;;;;;;1.00;0.60;;;;;;;20.99;40.15;97920.28;5118377;27;41219;-87
2023/11/06 13:15:58;;;;;;;1.17;0.60;;;;;;;20.66;40.02;97927.81;5116993;27;40305;-87
2023/11/06 13:18:27;;;;;;;2.37;0.63;;;;;;;20.19;40.70;97901.97;5118275;27;42673;-87
2023/11/06 13:20:56;;;;;;;2.10;0.80;;;;;;;20.09;41.41;97934.47;5116800;27;43256;-87
2023/11/06 13:23:24;;;;;;;1.87;1.00;;;;;;;19.66;42.24;97917.06;5117944;27;42080;-89
2023/11/06 13:25:53;;;;;;;2.07;1.00;;;;;;;19.31;42.70;97929.13;5133150;27;38844;-87
2023/11/06 13:28:21;;;;;;;1.97;1.57;;;;;;;18.84;42.98;97918.34;5117960;27;40685;-88
2023/11/06 13:30:49;;;;;;;5.77;1.63;;;;;;;18.60;43.46;97921.06;5113173;27;42954;-86
2023/11/06 13:33:17;;;;;;;6.47;3.30;;;;;;;18.26;44.60;97922.06;5116126;27;41625;-89
2023/11/06 13:35:44;;;;;;;1.97;1.23;;;;;;;18.08;44.92;97921.38;5117299;27;40277;-86
2023/11/06 13:38:12;;;;;;;2.70;1.57;;;;;;;17.74;45.47;97913.44;5119906;27;42332;-87
2023/11/06 13:40:43;;;;;;;2.10;1.40;;;;;;;17.57;46.36;97915.19;5119882;27;41780;-87
2023/11/06 13:43:12;;;;;;;1.63;1.20;;;;;;;17.27;46.45;97907.75;5134011;27;41108;-87
2023/11/06 13:45:41;;;;;;;1.00;0.70;;;;;;;17.07;46.78;97899.09;5119421;27;40128;-85
2023/11/06 13:48:10;;;;;;;1.50;0.70;;;;;;;17.05;47.67;97895.78;5118074;27;41867;-87
2023/11/06 13:50:59;;;;;;;2.17;1.00;;;;;;;17.03;47.63;97915.66;5119146;27;41743;-86
2023/11/06 13:53:27;;;;;;;0.90;0.57;;;;;;;16.75;48.46;97918.50;5118860;27;41288;-85
2023/11/06 13:56:15;;;;;;;1.17;0.70;;;;;;;16.42;51.26;97905.88;5118627;27;39438;-87
2023/11/06 13:58:46;;;;;;;2.27;0.70;;;;;;;15.89;54.21;97896.06;5099696;27;41945;-87
2023/11/06 14:01:14;;;;;;;1.07;0.60;;;;;;;15.52;58.65;97890.00;5099676;27;42143;-88
2023/11/06 14:03:47;;;;;;;1.20;0.70;;;;;;;15.05;62.01;97882.13;5136059;27;41183;-88
2023/11/06 14:06:17;;;;;;;0.83;0.80;;;;;;;14.90;63.84;97899.56;5120014;27;38945;-86
2023/11/06 14:08:45;;;;;;;1.00;0.60;;;;;;;14.59;65.20;97889.13;5136801;27;42844;-85
2023/11/06 14:11:13;;;;;;;2.07;0.80;;;;;;;14.53;66.52;97897.72;5136786;27;43452;-86
2023/11/06 14:13:41;;;;;;;1.10;0.60;;;;;;;14.35;67.25;97884.25;5120972;27;42336;-85
2023/11/06 14:16:11;;;;;;;1.03;0.67;;;;;;;14.36;68.03;97911.72;5120664;27;39519;-85
2023/11/06 14:18:39;;;;;;;1.33;0.63;;;;;;;14.24;69.92;97907.53;5137843;27;41807;-86
2023/11/06 14:21:07;;;;;;;0.70;0.50;;;;;;;14.18;69.20;97908.13;5137376;27;42778;-86
2023/11/06 14:23:35;;;;;;;4.53;0.93;;;;;;;14.11;69.30;97907.00;5155006;27;42296;-85
2023/11/06 14:26:06;;;;;;;1.87;0.70;;;;;;;14.07;68.96;97916.25;5120335;27;40217;-85
2023/11/06 14:28:34;;;;;;;3.43;1.00;;;;;;;13.93;70.66;97899.72;5134160;27;43334;-85
2023/11/06 14:31:01;;;;;;;1.93;0.80;;;;;;;13.97;70.37;97903.75;5138102;27;42627;-85
2023/11/06 14:33:30;;;;;;;2.47;0.67;;;;;;;14.03;70.40;97905.03;5119650;27;41221;-85
2023/11/06 14:35:58;;;;;;;1.23;0.57;;;;;;;14.11;69.45;97909.66;5120557;27;39386;-85
2023/11/06 14:38:26;;;;;;;1.17;0.53;;;;;;;14.23;70.75;97919.16;5137476;27;42486;-85
2023/11/06 14:40:54;;;;;;;2.03;0.53;;;;;;;14.20;70.55;97895.50;5119192;27;41902;-86
2023/11/06 14:43:22;;;;;;;2.03;0.60;;;;;;;14.22;70.28;97893.53;5118053;27;41215;-86
2023/11/06 14:45:51;;;;;;;2.07;0.70;;;;;;;14.27;70.05;97912.59;5118791;27;39078;-86
2023/11/06 14:48:20;;;;;;;0.50;0.50;;;;;;;14.32;69.46;97915.69;5118800;27;41264;-87
2023/11/06 14:50:49;;;;;;;2.30;0.60;;;;;;;14.18;68.99;97902.81;5118450;27;42163;-86
2023/11/06 14:53:17;;;;;;;2.13;0.67;;;;;;;14.14;68.96;97902.22;5118374;27;41723;-86
2023/11/06 14:55:44;;;;;;;0.80;0.60;;;;;;;14.17;69.45;97903.78;5118513;27;38818;-86
2023/11/06 14:58:12;;;;;;;1.37;0.60;;;;;;;14.09;70.20;97915.16;5118949;27;41233;-86
2023/11/06 15:00:40;;;;;;;0.90;0.60;;;;;;;14.07;70.22;97916.25;5135515;27;42837;-85
2023/11/06 15:03:09;;;;;;;0.73;0.73;;;;;;;13.95;70.83;97897.78;5136086;27;41474;-85
2023/11/06 15:05:37;;;;;;;0.53;0.53;;;;;;;14.01;72.02;97913.16;5108510;27;39457;-85
2023/11/06 15:08:06;;;;;;;1.27;0.73;;;;;;;13.87;70.35;97910.06;5135576;27;41841;-87
2023/11/06 15:10:34;;;;;;;0.50;0.40;;;;;;;13.99;70.47;97925.78;5134883;27;42142;-85
2023/11/06 15:13:02;;;;;;;0.57;0.57;;;;;;;13.88;69.81;97917.09;5117925;27;41366;-85
2023/11/06 15:15:29;;;;;;;0.67;0.50;;;;;;;13.72;69.02;97911.50;5119520;27;38975;-85
2023/11/06 15:17:58;;;;;;;1.80;0.50;;;;;;;13.63;69.79;97907.81;5127630;27;40613;-86
2023/11/06 15:20:25;;;;;;;1.03;0.60;;;;;;;13.42;70.25;97891.97;5126409;27;44168;-85
2023/11/06 15:22:54;;;;;;;0.70;0.50;;;;;;;13.59;70.72;97927.72;5128678;27;41265;-84
2023/11/06 15:25:24;;;;;;;1.60;0.67;;;;;;;13.44;70.82;97907.78;5138615;27;39585;-84
2023/11/06 15:27:55;;;;;;;1.17;0.40;;;;;;;13.42;70.19;97909.75;5148506;27;42082;-85
2023/11/06 15:30:23;;;;;;;0.40;0.40;;;;;;;13.25;70.76;97890.81;5115663;27;42455;-86
2023/11/06 15:32:51;;;;;;;1.20;0.40;;;;;;;13.43;70.11;97920.25;5119918;27;41139;-86
2023/11/06 15:35:18;;;;;;;0.40;0.40;;;;;;;13.36;71.38;97908.47;5118043;27;38930;-85
2023/11/06 15:37:47;;;;;;;0.50;0.50;;;;;;;13.29;71.24;97908.19;5153173;27;42793;-86
2023/11/06 15:40:15;;;;;;;1.97;0.50;;;;;;;13.25;71.58;97916.53;5134530;27;41892;-87
2023/11/06 15:42:44;;;;;;;0.40;0.40;;;;;;;13.04;70.94;97905.97;5118476;27;42559;-87
2023/11/06 15:45:13;;;;;;;0.87;0.50;;;;;;;12.99;71.01;97909.97;5135186;27;39321;-86
2023/11/06 15:47:41;;;;;;;0.50;0.40;;;;;;;13.00;72.27;97909.00;5118219;27;40569;-86
2023/11/06 15:50:11;;;;;;;0.60;0.50;;;;;;;13.05;71.71;97918.28;5134545;27;42699;-86
2023/11/06 15:52:41;;;;;;;1.17;0.40;;;;;;;13.15;71.79;97924.50;5118509;27;41216;-86
2023/11/06 15:55:09;;;;;;;0.70;0.50;;;;;;;13.09;71.12;97909.06;5118192;27;39010;-86
2023/11/06 15:57:37;;;;;;;2.27;0.53;;;;;;;13.11;71.47;97912.41;5118119;27;40856;-86
2023/11/06 16:00:08;;;;;;;1.17;0.53;;;;;;;13.09;71.29;97929.50;5117096;27;42834;-85
2023/11/06 16:02:41;;;;;;;1.37;0.53;;;;;;;13.11;70.09;97932.84;5118158;27;41117;-85
2023/11/06 16:05:09;;;;;;;0.33;0.33;;;;;;;13.12;71.22;97940.69;5153874;27;39971;-86
2023/11/06 16:07:37;;;;;;;0.60;0.50;;;;;;;13.11;71.64;97939.00;5118568;27;41218;-86
2023/11/06 16:10:06;;;;;;;0.50;0.50;;;;;;;13.08;70.64;97941.94;5135065;27;42889;-85
2023/11/06 16:12:34;;;;;;;0.53;0.43;;;;;;;13.08;70.69;97933.13;5118825;27;40867;-85
2023/11/06 16:15:02;;;;;;;0.33;0.33;;;;;;;13.16;70.35;97960.75;5119855;27;38886;-85
2023/11/06 16:17:31;;;;;;;0.70;0.70;;;;;;;13.09;70.99;97956.91;5117644;27;40973;-85
2023/11/06 16:19:59;;;;;;;0.40;0.40;;;;;;;13.08;70.29;97957.88;5119119;27;42020;-86
2023/11/06 16:22:26;;;;;;;0.63;0.30;;;;;;;13.05;70.66;97960.81;5118841;27;41074;-86
2023/11/06 16:24:54;;;;;;;0.60;0.50;;;;;;;13.05;70.59;97952.84;5119159;27;39804;-87
2023/11/06 16:27:24;;;;;;;0.57;0.57;;;;;;;12.95;71.13;97950.13;5135693;27;42746;-87
2023/11/06 16:29:52;;;;;;;1.00;0.60;;;;;;;12.98;70.91;97959.66;5119372;27;41585;-87
2023/11/06 16:32:20;;;;;;;0.57;0.47;;;;;;;13.05;70.78;97965.28;5136028;27;41121;-86
2023/11/06 16:34:49;;;;;;;0.53;0.50;;;;;;;13.15;71.04;97987.47;5134038;27;40918;-87
2023/11/06 16:37:16;;;;;;;0.57;0.57;;;;;;;13.17;71.49;97990.84;5117787;27;40781;-87
2023/11/06 16:39:45;;;;;;;0.97;0.60;;;;;;;13.07;70.92;97972.16;5098731;27;42880;-85
2023/11/06 16:42:13;;;;;;;0.97;0.70;;;;;;;13.08;71.06;97981.81;5135123;27;42550;-86
2023/11/06 16:44:41;;;;;;;1.10;0.80;;;;;;;12.98;72.16;97980.09;5117471;27;38669;-86
2023/11/06 16:47:09;;;;;;;0.80;0.60;;;;;;;12.97;72.45;97999.66;5135050;27;42027;-86
2023/11/06 16:49:36;;;;;;;1.20;0.87;;;;;;;12.82;73.20;97992.03;5116739;27;41878;-86
2023/11/06 16:52:06;;;;;;;1.17;0.70;;;;;;;12.70;73.47;97992.22;5135508;27;41895;-86
2023/11/06 16:54:34;;;;;;;0.80;0.63;;;;;;;12.60;73.53;97989.50;5117334;27;38958;-86
2023/11/06 16:57:01;;;;;;;1.33;0.87;;;;;;;12.57;73.54;97992.41;5134375;27;40232;-86
2023/11/06 16:59:29;;;;;;;2.30;0.60;;;;;;;12.47;74.66;97986.19;5116320;27;42987;-87
2023/11/06 17:01:56;;;;;;;0.70;0.70;;;;;;;12.40;74.89;97980.53;5117875;27;42514;-85
2023/11/06 17:04:24;;;;;;;0.80;0.80;;;;;;;12.35;74.50;97989.88;5118088;27;38712;-87
2023/11/06 17:06:52;;;;;;;0.50;0.50;;;;;;;12.33;75.25;97994.47;5135248;27;40570;-86
2023/11/06 17:09:21;;;;;;;0.70;0.60;;;;;;;12.27;75.16;97989.66;5117685;27;41762;-86
2023/11/06 17:11:49;;;;;;;1.60;0.70;;;;;;;12.20;75.42;97984.03;5119358;27;42436;-86
2023/11/06 17:14:16;;;;;;;0.70;0.70;;;;;;;12.09;75.34;97984.09;5139920;27;39882;-86
2023/11/06 17:16:44;;;;;;;2.10;0.90;;;;;;;11.94;75.97;97972.06;5138086;27;41752;-86
2023/11/06 17:19:11;;;;;;;0.50;0.50;;;;;;;12.03;75.95;97997.84;5140108;27;42711;-86
2023/11/06 17:21:39;;;;;;;0.50;0.50;;;;;;;12.07;76.29;98009.91;5122848;27;40929;-87
2023/11/06 17:24:08;;;;;;;1.00;0.63;;;;;;;12.03;77.00;97997.84;5122637;27;38922;-86
2023/11/06 17:26:37;;;;;;;1.27;0.70;;;;;;;12.10;76.65;98004.34;5139438;27;40710;-87
2023/11/06 17:29:05;;;;;;;1.70;0.50;;;;;;;12.15;76.87;98002.13;5120819;27;43042;-86
2023/11/06 17:31:34;;;;;;;1.50;0.50;;;;;;;12.23;76.98;98010.34;5139005;27;41061;-87
2023/11/06 17:34:03;;;;;;;0.93;0.63;;;;;;;12.28;76.10;98018.75;5134597;27;38984;-86
2023/11/06 17:36:33;;;;;;;0.87;0.60;;;;;;;12.40;76.61;98033.66;5101010;27;41677;-86
2023/11/06 17:39:01;;;;;;;0.80;0.60;;;;;;;12.19;76.14;98004.41;5101474;27;41862;-87
2023/11/06 17:41:30;;;;;;;0.70;0.60;;;;;;;12.35;75.97;98035.03;5100235;27;40928;-86
2023/11/06 17:43:59;;;;;;;0.97;0.80;;;;;;;12.19;76.05;98022.16;5137173;27;39005;-86
2023/11/06 17:46:27;;;;;;;0.80;0.63;;;;;;;12.14;76.68;98017.22;5103732;27;41193;-85
2023/11/06 17:48:55;;;;;;;0.67;0.67;;;;;;;12.17;76.52;98029.41;5119936;27;42778;-86
2023/11/06 17:51:22;;;;;;;0.90;0.90;;;;;;;12.24;76.49;98043.84;5120367;27;41233;-86
2023/11/06 17:53:50;;;;;;;0.80;0.80;;;;;;;12.29;76.87;98039.00;5120179;27;39329;-86
2023/11/06 17:56:19;;;;;;;1.00;0.80;;;;;;;12.28;77.34;98039.97;5137969;27;41668;-85
2023/11/06 17:58:49;;;;;;;1.30;1.20;;;;;;;12.37;76.74;98049.81;5120405;27;41747;-86
2023/11/06 18:01:19;;;;;;;1.63;1.10;;;;;;;12.36;76.90;98048.16;5138019;27;42213;-86
2023/11/06 18:03:46;;;;;;;1.70;0.90;;;;;;;12.34;76.89;98044.78;5120376;27;39147;-86
2023/11/06 18:06:14;;;;;;;3.33;1.57;;;;;;;12.46;76.95;98054.41;5120655;27;41146;-86
2023/11/06 18:08:42;;;;;;;1.20;1.10;;;;;;;12.39;77.10;98047.06;5137790;27;42667;-85
2023/11/06 18:11:09;;;;;;;1.53;1.17;;;;;;;12.45;76.89;98057.19;5120524;27;41152;-87
2023/11/06 18:13:37;;;;;;;0.80;0.80;;;;;;;12.41;76.55;98045.97;5121754;27;38936;-86
2023/11/06 18:16:06;;;;;;;1.87;0.90;;;;;;;12.49;76.78;98063.91;5126331;27;41978;-86
2023/11/06 18:18:35;;;;;;;2.37;1.07;;;;;;;12.40;77.30;98059.34;5141474;27;42702;-86
2023/11/06 18:21:02;;;;;;;0.60;0.60;;;;;;;12.44;76.85;98074.94;5127756;27;40958;-85
2023/11/06 18:23:32;;;;;;;0.60;0.60;;;;;;;12.26;76.55;98039.25;5121349;27;38855;-87
2023/11/06 18:25:59;;;;;;;1.47;0.80;;;;;;;12.53;76.27;98081.28;5119863;27;40966;-86
2023/11/06 18:28:27;;;;;;;0.73;0.50;;;;;;;12.51;76.06;98088.53;5118332;27;42767;-88
2023/11/06 18:30:54;;;;;;;0.63;0.50;;;;;;;12.48;75.52;98094.97;5119852;27;40873;-85
2023/11/06 18:33:22;;;;;;;0.57;0.57;;;;;;;12.44;76.32;98109.44;5137459;27;39341;-86
2023/11/06 18:35:51;;;;;;;0.97;0.70;;;;;;;12.34;78.62;98102.34;5103038;27;42126;-85
2023/11/06 18:38:19;;;;;;;0.93;0.60;;;;;;;12.18;79.67;98102.75;5137219;27;41773;-86
2023/11/06 18:40:47;;;;;;;0.50;0.50;;;;;;;12.03;80.81;98114.59;5119569;27;41038;-85
2023/11/06 18:43:15;;;;;;;0.93;0.83;;;;;;;11.83;81.63;98102.94;5120194;27;39328;-85
2023/11/06 18:45:43;;;;;;;0.60;0.60;;;;;;;11.70;82.34;98107.50;5119908;27;41398;-85
2023/11/06 18:48:10;;;;;;;0.60;0.60;;;;;;;11.67;82.87;98128.94;5119950;27;43185;-85
2023/11/06 18:50:38;;;;;;;1.30;0.80;;;;;;;11.45;84.47;98108.56;5119377;27;41250;-85
2023/11/06 18:53:09;;;;;;;0.80;0.80;;;;;;;11.44;84.08;98136.03;5119663;27;38770;-85
2023/11/06 18:55:37;;;;;;;0.80;0.80;;;;;;;11.35;84.59;98131.47;5119613;27;42078;-85
2023/11/06 18:58:06;;;;;;;1.10;1.00;;;;;;;11.19;83.89;98118.53;5136697;27;42922;-85
2023/11/06 19:00:34;;;;;;;1.23;1.03;;;;;;;11.07;84.18;98120.31;5119645;27;41274;-84
2023/11/06 19:03:02;;;;;;;2.13;1.10;;;;;;;11.01;85.46;98120.78;5119644;27;39109;-85
2023/11/06 19:05:29;;;;;;;1.20;1.00;;;;;;;11.01;85.64;98155.22;5119318;27;41630;-85
2023/11/06 19:07:57;;;;;;;0.70;0.70;;;;;;;10.84;86.94;98134.47;5136618;27;42706;-87
2023/11/06 19:10:27;;;;;;;1.60;1.03;;;;;;;10.79;87.43;98144.53;5119337;27;41199;-86
2023/11/06 19:12:54;;;;;;;0.80;0.80;;;;;;;10.68;87.08;98136.56;5120550;27;39199;-84
2023/11/06 19:15:22;;;;;;;0.70;0.70;;;;;;;10.75;87.67;98161.66;5120509;27;41138;-85
2023/11/06 19:17:51;;;;;;;1.00;1.00;;;;;;;10.58;87.60;98143.50;5120490;27;42588;-84
2023/11/06 19:20:18;;;;;;;0.77;0.77;;;;;;;10.69;87.86;98176.16;5120370;27;42635;-85
2023/11/06 19:22:46;;;;;;;1.17;1.00;;;;;;;10.61;87.65;98175.06;5120486;27;40006;-84
2023/11/06 19:25:13;;;;;;;1.07;0.80;;;;;;;10.62;88.56;98187.34;5137254;27;40877;-85
2023/11/06 19:27:42;;;;;;;0.70;0.63;;;;;;;10.54;88.40;98184.38;5119658;27;43480;-84
2023/11/06 19:30:11;;;;;;;0.70;0.67;;;;;;;10.64;88.54;98211.88;5137418;27;43233;-85
2023/11/06 19:32:39;;;;;;;1.27;1.00;;;;;;;10.59;88.50;98203.44;5120238;27;38922;-84
2023/11/06 19:35:08;;;;;;;1.33;0.80;;;;;;;10.51;88.20;98200.50;5118974;27;41849;-84
2023/11/06 19:37:36;;;;;;;0.90;0.90;;;;;;;10.50;87.75;98204.13;5137120;27;42109;-84
2023/11/06 19:40:05;;;;;;;0.97;0.83;;;;;;;10.48;87.78;98200.72;5119729;27;41342;-84
2023/11/06 19:42:33;;;;;;;1.00;1.00;;;;;;;10.47;87.96;98214.91;5118418;27;39798;-84
2023/11/06 19:45:02;;;;;;;1.33;1.23;;;;;;;10.48;87.92;98221.91;5135764;27;40833;-85
2023/11/06 19:47:29;;;;;;;1.07;0.90;;;;;;;10.36;88.60;98213.06;5118811;27;41419;-86
2023/11/06 19:49:57;;;;;;;0.73;0.73;;;;;;;10.34;88.54;98221.09;5117908;27;41368;-84
2023/11/06 19:52:25;;;;;;;0.70;0.60;;;;;;;10.29;88.71;98214.44;5136147;27;39747;-86
2023/11/06 19:54:52;;;;;;;1.00;0.80;;;;;;;10.22;89.26;98219.31;5118417;27;41973;-86
2023/11/06 19:57:20;;;;;;;0.60;0.53;;;;;;;10.12;89.55;98207.69;5118801;27;41749;-85
2023/11/06 19:59:47;;;;;;;2.10;0.73;;;;;;;10.26;89.88;98244.59;5118698;27;41981;-86
2023/11/06 20:02:16;;;;;;;1.47;0.40;;;;;;;10.17;89.46;98232.00;5118949;27;38965;-86
2023/11/06 20:04:44;;;;;;;0.70;0.60;;;;;;;10.10;90.58;98228.09;5118296;27;40948;-86
2023/11/06 20:07:11;;;;;;;2.87;0.60;;;;;;;10.11;90.03;98228.94;5118833;27;41825;-85
2023/11/06 20:09:39;;;;;;;0.83;0.60;;;;;;;10.11;90.83;98235.09;5118516;27;41518;-84
2023/11/06 20:12:07;;;;;;;1.43;0.90;;;;;;;10.16;90.14;98232.94;5118921;27;40373;-85
2023/11/06 20:14:35;;;;;;;1.70;0.77;;;;;;;10.20;90.50;98238.91;5136591;27;41085;-85
2023/11/06 20:17:04;;;;;;;0.83;0.50;;;;;;;10.16;90.12;98226.81;5136805;27;43767;-86
2023/11/06 20:19:33;;;;;;;0.93;0.83;;;;;;;10.43;89.19;98257.47;5119508;27;42240;-86
2023/11/06 20:22:01;;;;;;;0.70;0.60;;;;;;;10.44;89.07;98251.25;5119610;27;38911;-85
2023/11/06 20:24:28;;;;;;;0.50;0.50;;;;;;;10.50;88.56;98263.19;5136234;27;40786;-86
2023/11/06 20:26:56;;;;;;;0.47;0.43;;;;;;;10.41;88.82;98245.31;5118900;27;41770;-88
2023/11/06 20:29:34;;;;;;;0.60;0.60;;;;;;;10.28;88.17;98220.66;5116778;27;41774;-87
2023/11/06 20:32:02;;;;;;;0.70;0.60;;;;;;;10.35;87.83;98240.47;5118069;27;38812;-87
2023/11/06 20:34:29;;;;;;;1.67;0.67;;;;;;;10.30;88.20;98248.72;5118241;27;40288;-82